sensor_id;sensor_type;location;lat;lon;timestamp;P1;durP1;ratioP1;P2;durP2;ratioP2
59440;SDS011;45245;51.538;11.870;2022-07-15T00:02:06;3.38;;;1.15;;
59440;SDS011;45245;51.538;11.870;2022-07-15T00:04:33;2.78;;;1.15;;
59440;SDS011;45245;51.538;11.870;2022-07-15T00:06:58;2.00;;;1.08;;
59440;SDS011;45245;51.538;11.870;2022-07-15T00:09:24;1.30;;;1.13;;
59440;SDS011;45245;51.538;11.870;2022-07-15T00:12:09;1.23;;;1.08;;
59440;SDS011;45245;51.538;11.870;2022-07-15T00:14:35;0.95;;;0.95;;
59440;SDS011;45245;51.538;11.870;2022-07-15T00:17:00;1.25;;;1.15;;
59440;SDS011;45245;51.538;11.870;2022-07-15T00:19:26;1.60;;;1.05;;
59440;SDS011;45245;51.538;11.870;2022-07-15T00:21:52;2.45;;;1.00;;
59440;SDS011;45245;51.538;11.870;2022-07-15T00:24:17;3.65;;;1.10;;
59440;SDS011;45245;51.538;11.870;2022-07-15T00:26:42;1.52;;;1.08;;
59440;SDS011;45245;51.538;11.870;2022-07-15T00:29:08;1.38;;;1.00;;
59440;SDS011;45245;51.538;11.870;2022-07-15T00:31:33;3.08;;;1.17;;
59440;SDS011;45245;51.538;11.870;2022-07-15T00:33:58;0.93;;;0.93;;
59440;SDS011;45245;51.538;11.870;2022-07-15T00:36:24;1.92;;;1.20;;
59440;SDS011;45245;51.538;11.870;2022-07-15T00:38:49;1.10;;;1.08;;
59440;SDS011;45245;51.538;11.870;2022-07-15T00:41:14;1.92;;;1.10;;
59440;SDS011;45245;51.538;11.870;2022-07-15T00:43:40;1.80;;;1.05;;
59440;SDS011;45245;51.538;11.870;2022-07-15T00:46:06;1.00;;;0.90;;
59440;SDS011;45245;51.538;11.870;2022-07-15T00:48:32;1.58;;;1.08;;
59440;SDS011;45245;51.538;11.870;2022-07-15T00:50:57;1.40;;;1.30;;
59440;SDS011;45245;51.538;11.870;2022-07-15T00:53:23;2.00;;;1.23;;
59440;SDS011;45245;51.538;11.870;2022-07-15T00:55:52;1.95;;;1.20;;
59440;SDS011;45245;51.538;11.870;2022-07-15T00:58:22;1.27;;;1.10;;
59440;SDS011;45245;51.538;11.870;2022-07-15T01:00:49;1.38;;;1.13;;
59440;SDS011;45245;51.538;11.870;2022-07-15T01:03:16;1.20;;;1.10;;
59440;SDS011;45245;51.538;11.870;2022-07-15T01:05:42;2.63;;;1.10;;
59440;SDS011;45245;51.538;11.870;2022-07-15T01:08:08;1.90;;;1.42;;
59440;SDS011;45245;51.538;11.870;2022-07-15T01:10:35;1.30;;;1.20;;
59440;SDS011;45245;51.538;11.870;2022-07-15T01:13:01;1.48;;;1.20;;
59440;SDS011;45245;51.538;11.870;2022-07-15T01:15:28;5.82;;;1.20;;
59440;SDS011;45245;51.538;11.870;2022-07-15T01:17:53;1.23;;;1.13;;
59440;SDS011;45245;51.538;11.870;2022-07-15T01:20:18;1.00;;;1.00;;
59440;SDS011;45245;51.538;11.870;2022-07-15T01:22:45;1.60;;;1.00;;
59440;SDS011;45245;51.538;11.870;2022-07-15T01:25:13;1.17;;;1.10;;
59440;SDS011;45245;51.538;11.870;2022-07-15T01:27:40;1.52;;;1.15;;
59440;SDS011;45245;51.538;11.870;2022-07-15T01:30:06;1.40;;;1.30;;
59440;SDS011;45245;51.538;11.870;2022-07-15T01:32:32;1.75;;;1.50;;
59440;SDS011;45245;51.538;11.870;2022-07-15T01:34:58;2.88;;;1.55;;
59440;SDS011;45245;51.538;11.870;2022-07-15T01:37:24;2.08;;;1.58;;
59440;SDS011;45245;51.538;11.870;2022-07-15T01:39:49;2.58;;;1.48;;
59440;SDS011;45245;51.538;11.870;2022-07-15T01:42:14;1.92;;;1.35;;
59440;SDS011;45245;51.538;11.870;2022-07-15T01:44:40;1.90;;;1.55;;
59440;SDS011;45245;51.538;11.870;2022-07-15T01:47:05;1.50;;;1.30;;
59440;SDS011;45245;51.538;11.870;2022-07-15T01:49:31;2.42;;;1.50;;
59440;SDS011;45245;51.538;11.870;2022-07-15T01:51:57;3.25;;;1.60;;
59440;SDS011;45245;51.538;11.870;2022-07-15T01:54:24;1.35;;;1.15;;
59440;SDS011;45245;51.538;11.870;2022-07-15T01:56:51;1.55;;;1.45;;
59440;SDS011;45245;51.538;11.870;2022-07-15T01:59:18;2.17;;;1.58;;
59440;SDS011;45245;51.538;11.870;2022-07-15T02:01:43;2.28;;;1.38;;
59440;SDS011;45245;51.538;11.870;2022-07-15T02:04:10;2.05;;;1.58;;
59440;SDS011;45245;51.538;11.870;2022-07-15T02:06:36;1.45;;;1.35;;
59440;SDS011;45245;51.538;11.870;2022-07-15T02:09:01;2.28;;;1.70;;
59440;SDS011;45245;51.538;11.870;2022-07-15T02:11:27;1.73;;;1.30;;
59440;SDS011;45245;51.538;11.870;2022-07-15T02:13:53;1.40;;;1.30;;
59440;SDS011;45245;51.538;11.870;2022-07-15T02:16:24;1.67;;;1.58;;
59440;SDS011;45245;51.538;11.870;2022-07-15T02:18:53;2.65;;;1.70;;
59440;SDS011;45245;51.538;11.870;2022-07-15T02:21:19;1.45;;;1.35;;
59440;SDS011;45245;51.538;11.870;2022-07-15T02:23:44;1.70;;;1.60;;
59440;SDS011;45245;51.538;11.870;2022-07-15T02:26:09;2.28;;;1.58;;
59440;SDS011;45245;51.538;11.870;2022-07-15T02:28:34;1.98;;;1.20;;
59440;SDS011;45245;51.538;11.870;2022-07-15T02:31:00;2.35;;;1.50;;
59440;SDS011;45245;51.538;11.870;2022-07-15T02:33:26;1.92;;;1.83;;
59440;SDS011;45245;51.538;11.870;2022-07-15T02:35:51;2.42;;;1.48;;
59440;SDS011;45245;51.538;11.870;2022-07-15T02:38:17;1.58;;;1.40;;
59440;SDS011;45245;51.538;11.870;2022-07-15T02:40:42;2.78;;;1.80;;
59440;SDS011;45245;51.538;11.870;2022-07-15T02:43:08;2.10;;;1.50;;
59440;SDS011;45245;51.538;11.870;2022-07-15T02:45:35;1.98;;;1.75;;
59440;SDS011;45245;51.538;11.870;2022-07-15T02:48:01;2.08;;;1.75;;
59440;SDS011;45245;51.538;11.870;2022-07-15T02:50:27;4.70;;;1.70;;
59440;SDS011;45245;51.538;11.870;2022-07-15T02:52:53;2.78;;;1.20;;
59440;SDS011;45245;51.538;11.870;2022-07-15T02:55:18;1.92;;;1.40;;
59440;SDS011;45245;51.538;11.870;2022-07-15T02:57:44;4.50;;;1.60;;
59440;SDS011;45245;51.538;11.870;2022-07-15T03:00:11;2.05;;;1.45;;
59440;SDS011;45245;51.538;11.870;2022-07-15T03:02:38;2.65;;;1.77;;
59440;SDS011;45245;51.538;11.870;2022-07-15T03:05:05;1.42;;;1.30;;
59440;SDS011;45245;51.538;11.870;2022-07-15T03:07:31;3.65;;;1.50;;
59440;SDS011;45245;51.538;11.870;2022-07-15T03:09:57;2.00;;;1.38;;
59440;SDS011;45245;51.538;11.870;2022-07-15T03:12:22;1.52;;;1.38;;
59440;SDS011;45245;51.538;11.870;2022-07-15T03:14:47;1.65;;;1.52;;
59440;SDS011;45245;51.538;11.870;2022-07-15T03:17:13;2.17;;;1.98;;
59440;SDS011;45245;51.538;11.870;2022-07-15T03:19:38;2.83;;;1.30;;
59440;SDS011;45245;51.538;11.870;2022-07-15T03:22:03;3.97;;;1.63;;
59440;SDS011;45245;51.538;11.870;2022-07-15T03:24:29;1.80;;;1.50;;
59440;SDS011;45245;51.538;11.870;2022-07-15T03:26:55;4.25;;;1.92;;
59440;SDS011;45245;51.538;11.870;2022-07-15T03:29:21;2.10;;;1.42;;
59440;SDS011;45245;51.538;11.870;2022-07-15T03:31:47;1.50;;;1.40;;
59440;SDS011;45245;51.538;11.870;2022-07-15T03:34:12;2.55;;;1.67;;
59440;SDS011;45245;51.538;11.870;2022-07-15T03:36:39;2.08;;;1.50;;
59440;SDS011;45245;51.538;11.870;2022-07-15T03:39:05;3.33;;;1.73;;
59440;SDS011;45245;51.538;11.870;2022-07-15T03:41:32;2.30;;;2.03;;
59440;SDS011;45245;51.538;11.870;2022-07-15T03:43:58;3.35;;;1.65;;
59440;SDS011;45245;51.538;11.870;2022-07-15T03:46:25;2.17;;;1.90;;
59440;SDS011;45245;51.538;11.870;2022-07-15T03:48:51;1.95;;;1.75;;
59440;SDS011;45245;51.538;11.870;2022-07-15T03:51:16;1.88;;;1.73;;
59440;SDS011;45245;51.538;11.870;2022-07-15T03:53:42;5.32;;;1.77;;
59440;SDS011;45245;51.538;11.870;2022-07-15T03:56:08;3.85;;;2.08;;
59440;SDS011;45245;51.538;11.870;2022-07-15T03:58:33;1.80;;;1.63;;
59440;SDS011;45245;51.538;11.870;2022-07-15T04:00:58;3.08;;;1.65;;
59440;SDS011;45245;51.538;11.870;2022-07-15T04:03:24;2.60;;;1.33;;
59440;SDS011;45245;51.538;11.870;2022-07-15T04:05:49;1.55;;;1.40;;
59440;SDS011;45245;51.538;11.870;2022-07-15T04:08:14;1.60;;;1.40;;
59440;SDS011;45245;51.538;11.870;2022-07-15T04:10:40;2.13;;;1.52;;
59440;SDS011;45245;51.538;11.870;2022-07-15T04:13:05;4.95;;;1.80;;
59440;SDS011;45245;51.538;11.870;2022-07-15T04:15:32;2.33;;;2.10;;
59440;SDS011;45245;51.538;11.870;2022-07-15T04:17:57;1.80;;;1.67;;
59440;SDS011;45245;51.538;11.870;2022-07-15T04:20:23;1.63;;;1.48;;
59440;SDS011;45245;51.538;11.870;2022-07-15T04:22:49;2.28;;;2.13;;
59440;SDS011;45245;51.538;11.870;2022-07-15T04:25:15;2.03;;;1.50;;
59440;SDS011;45245;51.538;11.870;2022-07-15T04:27:43;3.08;;;1.83;;
59440;SDS011;45245;51.538;11.870;2022-07-15T04:30:09;2.92;;;1.40;;
59440;SDS011;45245;51.538;11.870;2022-07-15T04:32:35;1.90;;;1.70;;
59440;SDS011;45245;51.538;11.870;2022-07-15T04:35:01;2.50;;;1.83;;
59440;SDS011;45245;51.538;11.870;2022-07-15T04:37:27;3.78;;;1.90;;
59440;SDS011;45245;51.538;11.870;2022-07-15T04:39:54;2.80;;;1.45;;
59440;SDS011;45245;51.538;11.870;2022-07-15T04:42:20;1.63;;;1.50;;
59440;SDS011;45245;51.538;11.870;2022-07-15T04:44:46;3.05;;;1.83;;
59440;SDS011;45245;51.538;11.870;2022-07-15T04:47:12;1.80;;;1.45;;
59440;SDS011;45245;51.538;11.870;2022-07-15T04:49:37;3.15;;;1.70;;
59440;SDS011;45245;51.538;11.870;2022-07-15T04:52:23;3.35;;;1.45;;
59440;SDS011;45245;51.538;11.870;2022-07-15T04:54:49;4.88;;;2.08;;
59440;SDS011;45245;51.538;11.870;2022-07-15T04:57:15;5.00;;;1.75;;
59440;SDS011;45245;51.538;11.870;2022-07-15T04:59:40;1.92;;;1.35;;
59440;SDS011;45245;51.538;11.870;2022-07-15T05:02:05;2.00;;;1.80;;
59440;SDS011;45245;51.538;11.870;2022-07-15T05:04:31;2.10;;;1.70;;
59440;SDS011;45245;51.538;11.870;2022-07-15T05:06:57;3.00;;;1.67;;
59440;SDS011;45245;51.538;11.870;2022-07-15T05:09:22;3.65;;;1.80;;
59440;SDS011;45245;51.538;11.870;2022-07-15T05:11:48;1.52;;;1.42;;
59440;SDS011;45245;51.538;11.870;2022-07-15T05:14:13;3.17;;;1.90;;
59440;SDS011;45245;51.538;11.870;2022-07-15T05:16:39;2.85;;;1.88;;
59440;SDS011;45245;51.538;11.870;2022-07-15T05:19:04;3.00;;;1.98;;
59440;SDS011;45245;51.538;11.870;2022-07-15T05:21:29;3.67;;;1.70;;
59440;SDS011;45245;51.538;11.870;2022-07-15T05:23:55;4.93;;;2.13;;
59440;SDS011;45245;51.538;11.870;2022-07-15T05:26:20;2.53;;;1.80;;
59440;SDS011;45245;51.538;11.870;2022-07-15T05:28:46;3.50;;;2.40;;
59440;SDS011;45245;51.538;11.870;2022-07-15T05:31:11;4.35;;;1.75;;
59440;SDS011;45245;51.538;11.870;2022-07-15T05:33:36;3.33;;;1.92;;
59440;SDS011;45245;51.538;11.870;2022-07-15T05:36:02;5.00;;;1.95;;
59440;SDS011;45245;51.538;11.870;2022-07-15T05:38:28;3.75;;;2.00;;
59440;SDS011;45245;51.538;11.870;2022-07-15T05:40:53;2.45;;;1.88;;
59440;SDS011;45245;51.538;11.870;2022-07-15T05:43:19;4.45;;;2.30;;
59440;SDS011;45245;51.538;11.870;2022-07-15T05:45:44;5.35;;;1.92;;
59440;SDS011;45245;51.538;11.870;2022-07-15T05:48:10;5.32;;;2.45;;
59440;SDS011;45245;51.538;11.870;2022-07-15T05:50:35;4.70;;;2.05;;
59440;SDS011;45245;51.538;11.870;2022-07-15T05:53:00;3.17;;;1.92;;
59440;SDS011;45245;51.538;11.870;2022-07-15T05:55:26;3.85;;;2.22;;
59440;SDS011;45245;51.538;11.870;2022-07-15T05:57:51;5.72;;;1.88;;
59440;SDS011;45245;51.538;11.870;2022-07-15T06:00:17;4.15;;;1.85;;
59440;SDS011;45245;51.538;11.870;2022-07-15T06:02:42;5.28;;;1.65;;
59440;SDS011;45245;51.538;11.870;2022-07-15T06:05:08;3.83;;;2.05;;
59440;SDS011;45245;51.538;11.870;2022-07-15T06:07:34;3.97;;;2.10;;
59440;SDS011;45245;51.538;11.870;2022-07-15T06:10:01;3.22;;;2.03;;
59440;SDS011;45245;51.538;11.870;2022-07-15T06:12:27;4.47;;;2.38;;
59440;SDS011;45245;51.538;11.870;2022-07-15T06:14:52;3.60;;;2.03;;
59440;SDS011;45245;51.538;11.870;2022-07-15T06:17:18;5.05;;;1.70;;
59440;SDS011;45245;51.538;11.870;2022-07-15T06:19:43;3.67;;;2.30;;
59440;SDS011;45245;51.538;11.870;2022-07-15T06:22:09;3.60;;;1.77;;
59440;SDS011;45245;51.538;11.870;2022-07-15T06:24:34;4.55;;;2.30;;
59440;SDS011;45245;51.538;11.870;2022-07-15T06:26:59;9.73;;;2.40;;
59440;SDS011;45245;51.538;11.870;2022-07-15T06:29:24;7.53;;;2.10;;
59440;SDS011;45245;51.538;11.870;2022-07-15T06:31:50;2.17;;;1.70;;
59440;SDS011;45245;51.538;11.870;2022-07-15T06:34:16;7.53;;;1.60;;
59440;SDS011;45245;51.538;11.870;2022-07-15T06:36:42;6.85;;;1.40;;
59440;SDS011;45245;51.538;11.870;2022-07-15T06:39:07;5.53;;;1.88;;
59440;SDS011;45245;51.538;11.870;2022-07-15T06:41:33;3.13;;;1.33;;
59440;SDS011;45245;51.538;11.870;2022-07-15T06:43:59;2.88;;;1.40;;
59440;SDS011;45245;51.538;11.870;2022-07-15T06:46:26;2.17;;;1.40;;
59440;SDS011;45245;51.538;11.870;2022-07-15T06:48:51;6.10;;;1.52;;
59440;SDS011;45245;51.538;11.870;2022-07-15T06:51:16;2.17;;;1.13;;
59440;SDS011;45245;51.538;11.870;2022-07-15T06:53:42;1.77;;;1.13;;
59440;SDS011;45245;51.538;11.870;2022-07-15T06:56:07;5.10;;;1.27;;
59440;SDS011;45245;51.538;11.870;2022-07-15T06:58:33;2.47;;;1.05;;
59440;SDS011;45245;51.538;11.870;2022-07-15T07:00:59;3.70;;;1.33;;
59440;SDS011;45245;51.538;11.870;2022-07-15T07:03:24;6.00;;;1.55;;
59440;SDS011;45245;51.538;11.870;2022-07-15T07:05:50;3.65;;;1.38;;
59440;SDS011;45245;51.538;11.870;2022-07-15T07:08:15;2.05;;;1.08;;
59440;SDS011;45245;51.538;11.870;2022-07-15T07:10:41;2.53;;;1.13;;
59440;SDS011;45245;51.538;11.870;2022-07-15T07:13:06;3.45;;;1.10;;
59440;SDS011;45245;51.538;11.870;2022-07-15T07:15:32;1.20;;;0.90;;
59440;SDS011;45245;51.538;11.870;2022-07-15T07:17:57;3.17;;;1.00;;
59440;SDS011;45245;51.538;11.870;2022-07-15T07:20:22;3.35;;;1.25;;
59440;SDS011;45245;51.538;11.870;2022-07-15T07:22:48;4.57;;;1.33;;
59440;SDS011;45245;51.538;11.870;2022-07-15T07:25:13;3.65;;;1.08;;
59440;SDS011;45245;51.538;11.870;2022-07-15T07:27:38;2.17;;;1.00;;
59440;SDS011;45245;51.538;11.870;2022-07-15T07:30:04;4.55;;;1.17;;
59440;SDS011;45245;51.538;11.870;2022-07-15T07:32:30;2.30;;;1.17;;
59440;SDS011;45245;51.538;11.870;2022-07-15T07:34:56;2.75;;;0.90;;
59440;SDS011;45245;51.538;11.870;2022-07-15T07:37:22;5.50;;;1.63;;
59440;SDS011;45245;51.538;11.870;2022-07-15T07:39:48;1.63;;;0.90;;
59440;SDS011;45245;51.538;11.870;2022-07-15T07:42:13;4.20;;;1.17;;
59440;SDS011;45245;51.538;11.870;2022-07-15T07:44:38;1.23;;;0.85;;
59440;SDS011;45245;51.538;11.870;2022-07-15T07:47:04;2.75;;;1.10;;
59440;SDS011;45245;51.538;11.870;2022-07-15T07:49:29;1.50;;;0.90;;
59440;SDS011;45245;51.538;11.870;2022-07-15T07:51:55;1.58;;;0.70;;
59440;SDS011;45245;51.538;11.870;2022-07-15T07:54:20;2.08;;;0.90;;
59440;SDS011;45245;51.538;11.870;2022-07-15T07:56:46;2.38;;;0.80;;
59440;SDS011;45245;51.538;11.870;2022-07-15T07:59:12;4.57;;;1.00;;
59440;SDS011;45245;51.538;11.870;2022-07-15T08:01:37;1.90;;;1.20;;
59440;SDS011;45245;51.538;11.870;2022-07-15T08:04:02;3.38;;;1.08;;
59440;SDS011;45245;51.538;11.870;2022-07-15T08:06:28;4.78;;;1.80;;
59440;SDS011;45245;51.538;11.870;2022-07-15T08:08:54;5.20;;;1.27;;
59440;SDS011;45245;51.538;11.870;2022-07-15T08:11:19;1.73;;;0.82;;
59440;SDS011;45245;51.538;11.870;2022-07-15T08:13:45;4.53;;;1.15;;
59440;SDS011;45245;51.538;11.870;2022-07-15T08:16:12;4.35;;;1.35;;
59440;SDS011;45245;51.538;11.870;2022-07-15T08:18:37;2.15;;;0.90;;
59440;SDS011;45245;51.538;11.870;2022-07-15T08:21:03;3.63;;;1.00;;
59440;SDS011;45245;51.538;11.870;2022-07-15T08:23:29;6.32;;;0.95;;
59440;SDS011;45245;51.538;11.870;2022-07-15T08:25:57;2.60;;;0.95;;
59440;SDS011;45245;51.538;11.870;2022-07-15T08:28:23;4.65;;;1.05;;
59440;SDS011;45245;51.538;11.870;2022-07-15T08:30:49;4.25;;;0.90;;
59440;SDS011;45245;51.538;11.870;2022-07-15T08:33:15;3.45;;;0.90;;
59440;SDS011;45245;51.538;11.870;2022-07-15T08:35:40;4.65;;;1.10;;
59440;SDS011;45245;51.538;11.870;2022-07-15T08:38:07;2.75;;;0.95;;
59440;SDS011;45245;51.538;11.870;2022-07-15T08:40:34;1.73;;;1.00;;
59440;SDS011;45245;51.538;11.870;2022-07-15T08:43:00;2.97;;;0.63;;
59440;SDS011;45245;51.538;11.870;2022-07-15T08:45:25;1.23;;;0.95;;
59440;SDS011;45245;51.538;11.870;2022-07-15T08:47:52;1.73;;;1.00;;
59440;SDS011;45245;51.538;11.870;2022-07-15T08:50:17;3.63;;;1.00;;
59440;SDS011;45245;51.538;11.870;2022-07-15T08:52:44;1.13;;;0.77;;
59440;SDS011;45245;51.538;11.870;2022-07-15T08:55:11;0.77;;;0.75;;
59440;SDS011;45245;51.538;11.870;2022-07-15T08:57:37;2.15;;;0.55;;
59440;SDS011;45245;51.538;11.870;2022-07-15T09:00:03;2.08;;;0.80;;
59440;SDS011;45245;51.538;11.870;2022-07-15T09:02:32;1.20;;;0.70;;
59440;SDS011;45245;51.538;11.870;2022-07-15T09:05:19;1.15;;;0.68;;
59440;SDS011;45245;51.538;11.870;2022-07-15T09:10:19;1.23;;;0.65;;
59440;SDS011;45245;51.538;11.870;2022-07-15T09:12:47;1.77;;;0.90;;
59440;SDS011;45245;51.538;11.870;2022-07-15T09:15:32;1.48;;;0.50;;
59440;SDS011;45245;51.538;11.870;2022-07-15T09:18:10;1.75;;;0.77;;
59440;SDS011;45245;51.538;11.870;2022-07-15T09:20:37;2.05;;;1.13;;
59440;SDS011;45245;51.538;11.870;2022-07-15T09:23:05;2.58;;;0.77;;
59440;SDS011;45245;51.538;11.870;2022-07-15T09:25:31;2.97;;;0.93;;
59440;SDS011;45245;51.538;11.870;2022-07-15T09:28:01;1.17;;;0.75;;
59440;SDS011;45245;51.538;11.870;2022-07-15T09:30:33;1.40;;;0.57;;
59440;SDS011;45245;51.538;11.870;2022-07-15T09:33:22;3.70;;;0.50;;
59440;SDS011;45245;51.538;11.870;2022-07-15T09:41:52;3.28;;;0.55;;
59440;SDS011;45245;51.538;11.870;2022-07-15T09:44:02;1.83;;;0.80;;
59440;SDS011;45245;51.538;11.870;2022-07-15T09:46:43;1.63;;;0.60;;
59440;SDS011;45245;51.538;11.870;2022-07-15T09:49:13;0.80;;;0.50;;
59440;SDS011;45245;51.538;11.870;2022-07-15T09:51:49;0.80;;;0.80;;
59440;SDS011;45245;51.538;11.870;2022-07-15T09:54:16;2.03;;;0.80;;
59440;SDS011;45245;51.538;11.870;2022-07-15T09:56:41;1.85;;;0.60;;
59440;SDS011;45245;51.538;11.870;2022-07-15T09:59:08;5.43;;;1.10;;
59440;SDS011;45245;51.538;11.870;2022-07-15T10:01:34;5.38;;;0.80;;
59440;SDS011;45245;51.538;11.870;2022-07-15T10:04:00;2.15;;;0.70;;
59440;SDS011;45245;51.538;11.870;2022-07-15T10:06:26;1.98;;;0.65;;
59440;SDS011;45245;51.538;11.870;2022-07-15T10:08:52;0.68;;;0.50;;
59440;SDS011;45245;51.538;11.870;2022-07-15T10:11:18;1.15;;;0.52;;
59440;SDS011;45245;51.538;11.870;2022-07-15T10:13:57;1.48;;;0.93;;
59440;SDS011;45245;51.538;11.870;2022-07-15T10:21:45;1.25;;;0.60;;
59440;SDS011;45245;51.538;11.870;2022-07-15T10:24:26;1.85;;;1.02;;
59440;SDS011;45245;51.538;11.870;2022-07-15T10:29:53;1.33;;;0.98;;
59440;SDS011;45245;51.538;11.870;2022-07-15T10:32:19;2.08;;;0.75;;
59440;SDS011;45245;51.538;11.870;2022-07-15T10:34:44;2.75;;;0.90;;
59440;SDS011;45245;51.538;11.870;2022-07-15T10:37:10;1.80;;;0.70;;
59440;SDS011;45245;51.538;11.870;2022-07-15T10:42:12;3.92;;;0.77;;
59440;SDS011;45245;51.538;11.870;2022-07-15T10:44:47;3.30;;;0.80;;
59440;SDS011;45245;51.538;11.870;2022-07-15T10:49:39;1.97;;;0.83;;
59440;SDS011;45245;51.538;11.870;2022-07-15T10:52:10;1.80;;;0.98;;
59440;SDS011;45245;51.538;11.870;2022-07-15T10:54:38;3.13;;;1.08;;
59440;SDS011;45245;51.538;11.870;2022-07-15T10:57:04;2.00;;;0.70;;
59440;SDS011;45245;51.538;11.870;2022-07-15T10:59:34;1.65;;;0.85;;
59440;SDS011;45245;51.538;11.870;2022-07-15T11:04:27;1.95;;;0.88;;
59440;SDS011;45245;51.538;11.870;2022-07-15T11:12:18;0.60;;;0.60;;
59440;SDS011;45245;51.538;11.870;2022-07-15T11:14:46;1.60;;;0.88;;
59440;SDS011;45245;51.538;11.870;2022-07-15T11:17:14;3.38;;;0.85;;
59440;SDS011;45245;51.538;11.870;2022-07-15T11:19:44;2.03;;;1.00;;
59440;SDS011;45245;51.538;11.870;2022-07-15T11:22:11;1.92;;;0.70;;
59440;SDS011;45245;51.538;11.870;2022-07-15T11:24:36;3.15;;;0.60;;
59440;SDS011;45245;51.538;11.870;2022-07-15T11:27:02;2.67;;;0.88;;
59440;SDS011;45245;51.538;11.870;2022-07-15T11:29:44;1.90;;;0.70;;
59440;SDS011;45245;51.538;11.870;2022-07-15T11:32:11;1.25;;;0.80;;
59440;SDS011;45245;51.538;11.870;2022-07-15T11:34:38;3.40;;;1.27;;
59440;SDS011;45245;51.538;11.870;2022-07-15T11:37:05;2.65;;;0.90;;
59440;SDS011;45245;51.538;11.870;2022-07-15T11:39:30;1.58;;;0.70;;
59440;SDS011;45245;51.538;11.870;2022-07-15T11:41:55;1.20;;;0.95;;
59440;SDS011;45245;51.538;11.870;2022-07-15T11:44:49;2.05;;;0.80;;
59440;SDS011;45245;51.538;11.870;2022-07-15T11:47:16;3.72;;;0.85;;
59440;SDS011;45245;51.538;11.870;2022-07-15T11:49:41;2.35;;;0.80;;
59440;SDS011;45245;51.538;11.870;2022-07-15T11:52:09;2.05;;;0.80;;
59440;SDS011;45245;51.538;11.870;2022-07-15T11:54:37;3.63;;;1.00;;
59440;SDS011;45245;51.538;11.870;2022-07-15T11:57:04;1.33;;;0.55;;
59440;SDS011;45245;51.538;11.870;2022-07-15T11:59:31;3.28;;;0.80;;
59440;SDS011;45245;51.538;11.870;2022-07-15T12:02:00;1.65;;;0.70;;
59440;SDS011;45245;51.538;11.870;2022-07-15T12:04:32;2.00;;;0.90;;
59440;SDS011;45245;51.538;11.870;2022-07-15T12:06:58;2.80;;;1.10;;
59440;SDS011;45245;51.538;11.870;2022-07-15T12:09:24;2.45;;;0.80;;
59440;SDS011;45245;51.538;11.870;2022-07-15T12:11:50;1.75;;;0.93;;
59440;SDS011;45245;51.538;11.870;2022-07-15T12:14:19;1.40;;;1.13;;
59440;SDS011;45245;51.538;11.870;2022-07-15T12:21:39;3.67;;;1.38;;
59440;SDS011;45245;51.538;11.870;2022-07-15T12:24:16;3.15;;;1.10;;
59440;SDS011;45245;51.538;11.870;2022-07-15T12:26:56;2.78;;;0.90;;
59440;SDS011;45245;51.538;11.870;2022-07-15T12:29:23;3.28;;;1.08;;
59440;SDS011;45245;51.538;11.870;2022-07-15T12:31:55;3.55;;;0.93;;
59440;SDS011;45245;51.538;11.870;2022-07-15T12:34:22;2.53;;;1.00;;
59440;SDS011;45245;51.538;11.870;2022-07-15T12:36:58;1.38;;;0.70;;
59440;SDS011;45245;51.538;11.870;2022-07-15T12:39:23;2.75;;;1.10;;
59440;SDS011;45245;51.538;11.870;2022-07-15T12:41:57;1.08;;;0.80;;
59440;SDS011;45245;51.538;11.870;2022-07-15T12:44:27;2.50;;;0.70;;
59440;SDS011;45245;51.538;11.870;2022-07-15T12:46:53;1.85;;;1.17;;
59440;SDS011;45245;51.538;11.870;2022-07-15T12:54:41;4.03;;;1.27;;
59440;SDS011;45245;51.538;11.870;2022-07-15T12:57:17;2.90;;;0.90;;
59440;SDS011;45245;51.538;11.870;2022-07-15T12:59:52;2.13;;;0.77;;
59440;SDS011;45245;51.538;11.870;2022-07-15T13:02:18;2.28;;;1.00;;
59440;SDS011;45245;51.538;11.870;2022-07-15T13:04:44;2.83;;;1.17;;
59440;SDS011;45245;51.538;11.870;2022-07-15T13:07:09;3.70;;;1.05;;
59440;SDS011;45245;51.538;11.870;2022-07-15T13:09:34;2.03;;;0.85;;
59440;SDS011;45245;51.538;11.870;2022-07-15T13:12:00;1.65;;;0.82;;
59440;SDS011;45245;51.538;11.870;2022-07-15T13:14:25;4.93;;;1.00;;
59440;SDS011;45245;51.538;11.870;2022-07-15T13:16:51;2.33;;;0.80;;
59440;SDS011;45245;51.538;11.870;2022-07-15T13:19:16;1.17;;;0.68;;
59440;SDS011;45245;51.538;11.870;2022-07-15T13:21:42;2.72;;;0.90;;
59440;SDS011;45245;51.538;11.870;2022-07-15T13:24:07;7.47;;;1.20;;
59440;SDS011;45245;51.538;11.870;2022-07-15T13:26:32;1.95;;;0.98;;
59440;SDS011;45245;51.538;11.870;2022-07-15T13:28:58;1.95;;;1.00;;
59440;SDS011;45245;51.538;11.870;2022-07-15T13:31:23;2.05;;;0.80;;
59440;SDS011;45245;51.538;11.870;2022-07-15T13:33:48;1.92;;;0.75;;
59440;SDS011;45245;51.538;11.870;2022-07-15T13:36:14;3.53;;;0.98;;
59440;SDS011;45245;51.538;11.870;2022-07-15T13:38:39;1.70;;;0.85;;
59440;SDS011;45245;51.538;11.870;2022-07-15T13:41:04;1.10;;;0.75;;
59440;SDS011;45245;51.538;11.870;2022-07-15T13:43:30;1.13;;;0.85;;
59440;SDS011;45245;51.538;11.870;2022-07-15T13:45:55;4.75;;;1.05;;
59440;SDS011;45245;51.538;11.870;2022-07-15T13:48:20;1.35;;;0.65;;
59440;SDS011;45245;51.538;11.870;2022-07-15T13:50:46;1.05;;;0.90;;
59440;SDS011;45245;51.538;11.870;2022-07-15T13:53:30;3.60;;;1.10;;
59440;SDS011;45245;51.538;11.870;2022-07-15T13:55:55;1.58;;;0.90;;
59440;SDS011;45245;51.538;11.870;2022-07-15T13:58:20;3.28;;;1.20;;
59440;SDS011;45245;51.538;11.870;2022-07-15T14:00:46;3.42;;;1.80;;
59440;SDS011;45245;51.538;11.870;2022-07-15T14:03:11;2.03;;;1.10;;
59440;SDS011;45245;51.538;11.870;2022-07-15T14:05:37;1.80;;;0.90;;
59440;SDS011;45245;51.538;11.870;2022-07-15T14:08:02;1.15;;;0.70;;
59440;SDS011;45245;51.538;11.870;2022-07-15T14:10:28;2.40;;;1.00;;
59440;SDS011;45245;51.538;11.870;2022-07-15T14:12:53;1.10;;;0.68;;
59440;SDS011;45245;51.538;11.870;2022-07-15T14:15:19;1.17;;;1.00;;
59440;SDS011;45245;51.538;11.870;2022-07-15T14:17:44;4.13;;;1.13;;
59440;SDS011;45245;51.538;11.870;2022-07-15T14:20:10;2.58;;;0.93;;
59440;SDS011;45245;51.538;11.870;2022-07-15T14:22:35;1.92;;;1.13;;
59440;SDS011;45245;51.538;11.870;2022-07-15T14:25:00;1.67;;;0.80;;
59440;SDS011;45245;51.538;11.870;2022-07-15T14:27:26;2.45;;;1.00;;
59440;SDS011;45245;51.538;11.870;2022-07-15T14:29:51;2.15;;;1.10;;
59440;SDS011;45245;51.538;11.870;2022-07-15T14:32:17;1.80;;;1.00;;
59440;SDS011;45245;51.538;11.870;2022-07-15T14:34:42;1.90;;;0.82;;
59440;SDS011;45245;51.538;11.870;2022-07-15T14:37:07;2.97;;;1.40;;
59440;SDS011;45245;51.538;11.870;2022-07-15T14:39:33;1.90;;;1.00;;
59440;SDS011;45245;51.538;11.870;2022-07-15T14:41:58;2.35;;;1.00;;
59440;SDS011;45245;51.538;11.870;2022-07-15T14:44:23;1.00;;;0.90;;
59440;SDS011;45245;51.538;11.870;2022-07-15T14:46:49;1.25;;;1.02;;
59440;SDS011;45245;51.538;11.870;2022-07-15T14:49:14;1.75;;;0.90;;
59440;SDS011;45245;51.538;11.870;2022-07-15T14:51:39;2.03;;;1.30;;
59440;SDS011;45245;51.538;11.870;2022-07-15T14:54:05;1.02;;;0.90;;
59440;SDS011;45245;51.538;11.870;2022-07-15T14:56:30;2.08;;;1.00;;
59440;SDS011;45245;51.538;11.870;2022-07-15T14:58:55;0.80;;;0.80;;
59440;SDS011;45245;51.538;11.870;2022-07-15T15:01:21;2.42;;;1.00;;
59440;SDS011;45245;51.538;11.870;2022-07-15T15:03:46;2.13;;;1.35;;
59440;SDS011;45245;51.538;11.870;2022-07-15T15:06:12;1.77;;;1.10;;
59440;SDS011;45245;51.538;11.870;2022-07-15T15:08:37;4.93;;;1.13;;
59440;SDS011;45245;51.538;11.870;2022-07-15T15:11:03;3.47;;;1.60;;